Terminal Aerodrome Forecast
Issued by NWS Tulsa, OK

Home | Current Version | Previous Version | Text Only | Print | Product List | Glossary On
Versions: 1 2 3 4 5 6 7 8 9 10 11 12 13 14 15 16 17 18
750
FTUS44 KTSA 230825 AAA
TAFTUL
TAF AMD
KTUL 230825Z 2308/2406 VRB03KT 3SM BR OVC005
      TEMPO 2308/2312 P6SM NSW BKN015
     FM231500 05005KT P6SM OVC012
     FM231900 05005KT 3SM -RA BR OVC007
     FM240100 05005KT 2SM BR OVC004=

USA.gov is the U.S. government's official web portal to all federal, state and local government web resources and services.